Time,TemperatureF,DewpointF,PressureIn,WindDirection,WindDirectionDegrees,WindSpeedMPH,WindSpeedGustMPH,Humidity,HourlyPrecipIn,Conditions,Clouds,dailyrainin,SoftwareType,DateUTC
2013-01-18 00:00:00,-4.1,-7.2,30.31,SSW,205,0.0,0.0,86,0.00,,SKC,0.00,VWS V14.01,2013-01-18 06:00:00,
2013-01-18 00:03:00,-2.7,-5.6,30.30,WSW,240,0.0,0.0,87,0.00,,SKC,0.00,VWS V14.01,2013-01-18 06:03:00,
2013-01-18 00:05:00,-4.3,-7.4,30.31,SSW,205,0.0,0.0,86,0.00,,SKC,0.00,VWS V14.01,2013-01-18 06:05:00,
2013-01-18 00:08:00,-2.7,-5.6,30.30,WSW,240,0.0,0.0,87,0.00,,SKC,0.00,VWS V14.01,2013-01-18 06:08:00,
2013-01-18 00:10:00,-4.1,-7.0,30.31,SSW,205,0.0,0.0,87,0.00,,SKC,0.00,VWS V14.01,2013-01-18 06:10:00,
2013-01-18 00:13:00,-2.9,-5.8,30.30,WSW,240,0.0,0.0,87,0.00,,SKC,0.00,VWS V14.01,2013-01-18 06:13:00,
2013-01-18 00:18:00,-3.1,-6.2,30.30,WSW,240,0.0,0.0,86,0.00,,SKC,0.00,VWS V14.01,2013-01-18 06:18:00,
2013-01-18 00:20:00,-4.1,-7.0,30.31,SSW,205,0.0,0.0,87,0.00,,SKC,0.00,VWS V14.01,2013-01-18 06:20:00,
2013-01-18 00:23:00,-3.3,-6.4,30.30,WSW,240,0.0,0.0,86,0.00,,SKC,0.00,VWS V14.01,2013-01-18 06:23:00,
2013-01-18 00:25:00,-3.9,-6.8,30.31,SSW,205,0.0,0.0,87,0.00,,SKC,0.00,VWS V14.01,2013-01-18 06:25:00,
2013-01-18 00:28:00,-3.6,-6.7,30.30,WSW,239,0.0,0.0,86,0.00,,SKC,0.00,VWS V14.01,2013-01-18 06:28:00,
2013-01-18 00:30:00,-3.6,-6.5,30.31,SSW,205,0.0,0.0,87,0.00,,SKC,0.00,VWS V14.01,2013-01-18 06:30:00,
2013-01-18 00:33:00,-3.7,-6.8,30.30,WSW,239,0.0,0.0,86,0.00,,SKC,0.00,VWS V14.01,2013-01-18 06:33:00,
2013-01-18 00:35:00,-3.4,-6.3,30.31,SSW,205,0.0,0.0,87,0.00,,SKC,0.00,VWS V14.01,2013-01-18 06:35:00,
2013-01-18 00:38:00,-3.7,-6.6,30.30,WSW,240,0.0,0.0,87,0.00,,SKC,0.00,VWS V14.01,2013-01-18 06:38:00,
2013-01-18 00:40:00,-3.2,-6.1,30.31,SSW,205,0.0,0.0,87,0.00,,SKC,0.00,VWS V14.01,2013-01-18 06:40:00,
2013-01-18 00:43:00,-3.5,-6.4,30.30,WSW,240,0.0,0.0,87,0.00,,SKC,0.00,VWS V14.01,2013-01-18 06:43:00,
2013-01-18 00:48:00,-3.4,-6.3,30.30,WSW,239,0.0,0.0,87,0.00,,SKC,0.00,VWS V14.01,2013-01-18 06:48:00,
2013-01-18 00:50:00,-2.6,-5.5,30.32,SSW,205,0.0,0.0,87,0.00,,SKC,0.00,VWS V14.01,2013-01-18 06:50:00,
2013-01-18 00:53:00,-3.5,-6.4,30.30,WSW,240,0.0,0.0,87,0.00,,SKC,0.00,VWS V14.01,2013-01-18 06:53:00,
2013-01-18 00:58:00,-3.7,-6.6,30.30,SSW,205,0.0,0.0,87,0.00,,SKC,0.00,VWS V14.01,2013-01-18 06:58:00,
2013-01-18 01:00:00,-1.8,-4.5,30.31,SSW,205,0.0,0.0,88,0.00,,SKC,0.00,VWS V14.01,2013-01-18 07:00:00,
2013-01-18 01:03:00,-4.1,-7.2,30.31,SSW,205,0.0,0.0,86,0.00,,SKC,0.00,VWS V14.01,2013-01-18 07:03:00,
2013-01-18 01:05:00,-1.4,-4.1,30.31,South,169,0.0,0.0,88,0.00,,SKC,0.00,VWS V14.01,2013-01-18 07:05:00,
2013-01-18 01:08:00,-4.2,-7.3,30.31,SSW,205,0.0,0.0,86,0.00,,SKC,0.00,VWS V14.01,2013-01-18 07:08:00,
2013-01-18 01:10:00,-1.1,-4.0,30.31,South,169,0.0,0.0,87,0.00,,SKC,0.00,VWS V14.01,2013-01-18 07:10:00,
2013-01-18 01:13:00,-4.1,-7.0,30.31,SSW,205,0.0,0.0,87,0.00,,SKC,0.00,VWS V14.01,2013-01-18 07:13:00,
2013-01-18 01:15:00,-0.9,-3.8,30.31,South,169,0.0,0.0,87,0.00,,SKC,0.00,VWS V14.01,2013-01-18 07:15:00,
2013-01-18 01:18:00,-4.1,-7.0,30.31,SSW,205,0.0,0.0,87,0.00,,SKC,0.00,VWS V14.01,2013-01-18 07:18:00,
2013-01-18 01:20:00,-0.8,-3.7,30.31,South,169,0.0,0.0,87,0.00,,SKC,0.00,VWS V14.01,2013-01-18 07:20:00,
2013-01-18 01:23:00,-4.0,-6.9,30.31,SSW,205,0.0,0.0,87,0.00,,SKC,0.00,VWS V14.01,2013-01-18 07:23:00,
2013-01-18 01:25:00,-0.5,-3.2,30.31,South,169,0.0,0.0,88,0.00,,SKC,0.00,VWS V14.01,2013-01-18 07:25:00,
2013-01-18 01:28:00,-3.8,-6.7,30.31,SSW,205,0.0,0.0,87,0.00,,SKC,0.00,VWS V14.01,2013-01-18 07:28:00,
2013-01-18 01:30:00,-0.3,-3.0,30.31,South,169,0.0,0.0,88,0.00,,SKC,0.00,VWS V14.01,2013-01-18 07:30:00,
2013-01-18 01:33:00,-3.6,-6.5,30.31,SSW,205,0.0,0.0,87,0.00,,SKC,0.00,VWS V14.01,2013-01-18 07:33:00,
2013-01-18 01:38:00,-3.4,-6.3,30.31,SSW,205,0.0,0.0,87,0.00,,SKC,0.00,VWS V14.01,2013-01-18 07:38:00,
2013-01-18 01:40:00,0.2,-2.5,30.31,South,169,0.0,0.0,88,0.00,,SKC,0.00,VWS V14.01,2013-01-18 07:40:00,
2013-01-18 01:43:00,-3.1,-6.0,30.31,SSW,205,0.0,0.0,87,0.00,,SKC,0.00,VWS V14.01,2013-01-18 07:43:00,
2013-01-18 01:45:00,0.4,-2.3,30.30,SSE,155,0.0,0.0,88,0.00,,SKC,0.00,VWS V14.01,2013-01-18 07:45:00,
2013-01-18 01:48:00,-2.7,-5.4,30.32,SSW,205,0.0,0.0,88,0.00,,SKC,0.00,VWS V14.01,2013-01-18 07:48:00,
2013-01-18 01:50:00,0.7,-2.0,30.30,SSE,155,0.0,0.0,88,0.00,,SKC,0.00,VWS V14.01,2013-01-18 07:50:00,
2013-01-18 01:53:00,-2.5,-5.4,30.32,SSW,205,0.0,0.0,87,0.00,,SKC,0.00,VWS V14.01,2013-01-18 07:53:00,
2013-01-18 01:55:00,1.0,-1.7,30.30,SSE,155,0.0,0.0,88,0.00,,SKC,0.00,VWS V14.01,2013-01-18 07:55:00,
2013-01-18 01:58:00,-2.1,-4.8,30.32,SSW,205,0.0,0.0,88,0.00,,SKC,0.00,VWS V14.01,2013-01-18 07:58:00,
2013-01-18 02:00:00,1.2,-1.5,30.30,South,175,0.0,0.0,88,0.00,,SKC,0.00,VWS V14.01,2013-01-18 08:00:00,
2013-01-18 02:03:00,-1.7,-4.4,30.31,SSW,205,0.0,0.0,88,0.00,,SKC,0.00,VWS V14.01,2013-01-18 08:03:00,
2013-01-18 02:05:00,1.4,-1.3,30.30,South,175,0.0,0.0,88,0.00,,SKC,0.00,VWS V14.01,2013-01-18 08:05:00,
2013-01-18 02:08:00,-1.3,-4.0,30.31,South,169,0.0,0.0,88,0.00,,SKC,0.00,VWS V14.01,2013-01-18 08:08:00,
2013-01-18 02:10:00,1.6,-1.1,30.30,South,175,0.0,0.0,88,0.00,,SKC,0.00,VWS V14.01,2013-01-18 08:10:00,
2013-01-18 02:13:00,-1.1,-4.0,30.31,South,170,0.0,0.0,87,0.00,,SKC,0.00,VWS V14.01,2013-01-18 08:13:00,
2013-01-18 02:15:00,1.8,-0.9,30.30,South,175,0.0,0.0,88,0.00,,SKC,0.00,VWS V14.01,2013-01-18 08:15:00,
2013-01-18 02:18:00,-0.9,-3.8,30.31,South,170,0.0,0.0,87,0.00,,SKC,0.00,VWS V14.01,2013-01-18 08:18:00,
2013-01-18 02:20:00,1.9,-0.8,30.30,South,175,0.0,0.0,88,0.00,,SKC,0.00,VWS V14.01,2013-01-18 08:20:00,
2013-01-18 02:23:00,-0.7,-3.6,30.31,South,170,0.0,0.0,87,0.00,,SKC,0.00,VWS V14.01,2013-01-18 08:23:00,
2013-01-18 02:25:00,2.2,-0.5,30.30,ESE,123,1.0,1.0,88,0.00,,SKC,0.00,VWS V14.01,2013-01-18 08:25:00,
2013-01-18 02:28:00,-0.4,-3.1,30.31,South,170,0.0,0.0,88,0.00,,SKC,0.00,VWS V14.01,2013-01-18 08:28:00,
2013-01-18 02:33:00,-0.2,-2.9,30.31,South,170,0.0,0.0,88,0.00,,SKC,0.00,VWS V14.01,2013-01-18 08:33:00,
2013-01-18 02:35:00,2.5,-0.5,30.28,SE,135,0.0,0.0,87,0.00,,SKC,0.00,VWS V14.01,2013-01-18 08:35:00,
2013-01-18 02:38:00,-0.1,-2.7,30.31,South,170,0.0,0.0,88,0.00,,SKC,0.00,VWS V14.01,2013-01-18 08:38:00,
2013-01-18 02:40:00,2.7,-0.3,30.28,SE,141,0.0,1.0,87,0.00,,SKC,0.00,VWS V14.01,2013-01-18 08:40:00,
2013-01-18 02:43:00,0.2,-2.5,30.31,SSE,155,0.0,0.0,88,0.00,,SKC,0.00,VWS V14.01,2013-01-18 08:43:00,
2013-01-18 02:45:00,2.9,-0.1,30.26,SE,141,0.0,1.0,87,0.00,,SKC,0.00,VWS V14.01,2013-01-18 08:45:00,
2013-01-18 02:48:00,0.5,-2.2,30.30,SSE,155,0.0,0.0,88,0.00,,SKC,0.00,VWS V14.01,2013-01-18 08:48:00,
2013-01-18 02:50:00,3.0,0.0,30.26,SE,141,0.0,0.0,87,0.00,,SKC,0.00,VWS V14.01,2013-01-18 08:50:00,
2013-01-18 02:53:00,0.8,-1.9,30.30,SSE,155,0.0,0.0,88,0.00,,SKC,0.00,VWS V14.01,2013-01-18 08:53:00,
2013-01-18 02:55:00,3.2,0.2,30.26,SE,141,0.0,0.0,87,0.00,,SKC,0.00,VWS V14.01,2013-01-18 08:55:00,
2013-01-18 02:59:00,1.1,-1.6,30.30,SSE,155,0.0,0.0,88,0.00,,SKC,0.00,VWS V14.01,2013-01-18 08:59:00,
2013-01-18 03:04:00,1.3,-1.4,30.30,South,175,0.0,0.0,88,0.00,,SKC,0.00,VWS V14.01,2013-01-18 09:04:00,
2013-01-18 03:05:00,3.5,0.5,30.25,SE,141,0.0,0.0,87,0.00,,SKC,0.00,VWS V14.01,2013-01-18 09:05:00,
2013-01-18 03:09:00,1.5,-1.2,30.30,South,175,0.0,0.0,88,0.00,,SKC,0.00,VWS V14.01,2013-01-18 09:09:00,
2013-01-18 03:10:00,3.6,0.6,30.25,SE,135,0.0,0.0,87,0.00,,SKC,0.00,VWS V14.01,2013-01-18 09:10:00,
2013-01-18 03:14:00,1.7,-1.0,30.30,South,175,0.0,0.0,88,0.00,,SKC,0.00,VWS V14.01,2013-01-18 09:14:00,
2013-01-18 03:15:00,3.7,0.7,30.24,SSE,149,0.0,1.0,87,0.00,,SKC,0.00,VWS V14.01,2013-01-18 09:15:00,
2013-01-18 03:19:00,1.8,-0.9,30.30,South,175,0.0,0.0,88,0.00,,SKC,0.00,VWS V14.01,2013-01-18 09:19:00,
2013-01-18 03:24:00,2.0,-0.7,30.30,South,175,0.0,0.0,88,0.00,,SKC,0.00,VWS V14.01,2013-01-18 09:24:00,
2013-01-18 03:25:00,3.7,0.5,30.24,SE,134,0.0,0.0,86,0.00,,SKC,0.00,VWS V14.01,2013-01-18 09:25:00,
2013-01-18 03:29:00,2.2,-0.5,30.30,ESE,123,0.0,1.0,88,0.00,,SKC,0.00,VWS V14.01,2013-01-18 09:29:00,
2013-01-18 03:34:00,2.4,-0.6,30.28,ESE,123,0.0,0.0,87,0.00,,SKC,0.00,VWS V14.01,2013-01-18 09:34:00,
2013-01-18 03:35:00,3.8,0.6,30.23,ESE,116,0.0,0.0,86,0.00,,SKC,0.00,VWS V14.01,2013-01-18 09:35:00,
2013-01-18 03:39:00,2.5,-0.5,30.28,ESE,113,0.0,0.0,87,0.00,,SKC,0.00,VWS V14.01,2013-01-18 09:39:00,
2013-01-18 03:40:00,4.0,1.0,30.23,ESE,113,0.0,0.0,87,0.00,,SKC,0.00,VWS V14.01,2013-01-18 09:40:00,
2013-01-18 03:44:00,2.8,-0.2,30.28,SE,141,0.0,1.0,87,0.00,,SKC,0.00,VWS V14.01,2013-01-18 09:44:00,
2013-01-18 03:49:00,2.9,-0.1,30.26,SE,142,0.0,0.0,87,0.00,,SKC,0.00,VWS V14.01,2013-01-18 09:49:00,
2013-01-18 03:50:00,4.1,0.9,30.22,ESE,118,1.0,2.0,86,0.00,,SKC,0.00,VWS V14.01,2013-01-18 09:50:00,
2013-01-18 03:54:00,3.1,0.1,30.26,SE,141,0.0,0.0,87,0.00,,SKC,0.00,VWS V14.01,2013-01-18 09:54:00,
2013-01-18 03:55:00,4.2,0.9,30.22,SE,124,0.0,1.0,86,0.00,,SKC,0.00,VWS V14.01,2013-01-18 09:55:00,
2013-01-18 03:59:00,3.3,0.3,30.26,SE,141,0.0,0.0,87,0.00,,SKC,0.00,VWS V14.01,2013-01-18 09:59:00,
2013-01-18 04:00:00,4.3,1.0,30.22,ESE,115,0.0,1.0,86,0.00,,SKC,0.00,VWS V14.01,2013-01-18 10:00:00,
2013-01-18 04:04:00,3.5,0.5,30.25,SE,141,0.0,0.0,87,0.00,,SKC,0.00,VWS V14.01,2013-01-18 10:04:00,
2013-01-18 04:05:00,4.4,1.1,30.22,ESE,117,0.0,1.0,86,0.00,,SKC,0.00,VWS V14.01,2013-01-18 10:05:00,
2013-01-18 04:09:00,3.5,0.5,30.25,SE,141,0.0,0.0,87,0.00,,SKC,0.00,VWS V14.01,2013-01-18 10:09:00,
2013-01-18 04:10:00,4.5,1.2,30.22,SSE,147,0.0,1.0,86,0.00,,SKC,0.00,VWS V14.01,2013-01-18 10:10:00,
2013-01-18 04:14:00,3.6,0.4,30.25,SSE,150,0.0,1.0,86,0.00,,SKC,0.00,VWS V14.01,2013-01-18 10:14:00,
2013-01-18 04:15:00,4.7,1.7,30.21,ESE,119,0.0,1.0,87,0.00,,SKC,0.00,VWS V14.01,2013-01-18 10:15:00,
2013-01-18 04:19:00,3.7,0.7,30.24,SSE,150,0.0,0.0,87,0.00,,SKC,0.00,VWS V14.01,2013-01-18 10:19:00,
2013-01-18 04:20:00,4.9,1.9,30.21,SSE,159,0.0,1.0,87,0.00,,SKC,0.00,VWS V14.01,2013-01-18 10:20:00,
2013-01-18 04:24:00,3.7,0.5,30.24,SE,140,0.0,0.0,86,0.00,,SKC,0.00,VWS V14.01,2013-01-18 10:24:00,
2013-01-18 04:25:00,5.0,2.0,30.21,SSE,157,0.0,1.0,87,0.00,,SKC,0.00,VWS V14.01,2013-01-18 10:25:00,
2013-01-18 04:29:00,3.7,0.5,30.24,SE,133,0.0,0.0,86,0.00,,SKC,0.00,VWS V14.01,2013-01-18 10:29:00,
2013-01-18 04:30:00,5.1,2.1,30.21,SE,127,2.0,2.0,87,0.00,,SKC,0.00,VWS V14.01,2013-01-18 10:30:00,
2013-01-18 04:34:00,3.8,0.6,30.23,SE,133,0.0,0.0,86,0.00,,SKC,0.00,VWS V14.01,2013-01-18 10:34:00,
2013-01-18 04:35:00,5.2,1.9,30.21,SE,135,1.0,2.0,86,0.00,,SKC,0.00,VWS V14.01,2013-01-18 10:35:00,
2013-01-18 04:39:00,3.9,0.9,30.23,ESE,113,0.0,0.0,87,0.00,,SKC,0.00,VWS V14.01,2013-01-18 10:39:00,
2013-01-18 04:40:00,5.3,2.3,30.21,SSE,152,0.0,1.0,87,0.00,,SKC,0.00,VWS V14.01,2013-01-18 10:40:00,
2013-01-18 04:44:00,4.0,1.0,30.23,ESE,118,0.0,0.0,87,0.00,,SKC,0.00,VWS V14.01,2013-01-18 10:44:00,
2013-01-18 04:45:00,5.4,2.4,30.21,SSE,147,1.0,1.0,87,0.00,,SKC,0.00,VWS V14.01,2013-01-18 10:45:00,
2013-01-18 04:49:00,4.1,1.1,30.22,SE,127,0.0,0.0,87,0.00,,SKC,0.00,VWS V14.01,2013-01-18 10:49:00,
2013-01-18 04:50:00,5.4,2.4,30.21,SSE,149,2.0,2.0,87,0.00,,SKC,0.00,VWS V14.01,2013-01-18 10:50:00,
2013-01-18 04:54:00,4.2,0.9,30.22,SSE,150,0.0,1.0,86,0.00,,SKC,0.00,VWS V14.01,2013-01-18 10:54:00,
2013-01-18 04:55:00,5.5,2.5,30.21,ESE,121,0.0,2.0,87,0.00,,SKC,0.00,VWS V14.01,2013-01-18 10:55:00,
2013-01-18 04:59:00,4.3,1.0,30.22,ESE,117,0.0,1.0,86,0.00,,SKC,0.00,VWS V14.01,2013-01-18 10:59:00,
2013-01-18 05:00:00,5.6,2.6,30.20,ESE,118,2.0,2.0,87,0.00,,SKC,0.00,VWS V14.01,2013-01-18 11:00:00,
2013-01-18 05:04:00,4.3,1.0,30.22,ESE,115,0.0,1.0,86,0.00,,SKC,0.00,VWS V14.01,2013-01-18 11:04:00,
2013-01-18 05:05:00,5.7,2.7,30.20,ESE,117,1.0,3.0,87,0.00,,SKC,0.00,VWS V14.01,2013-01-18 11:05:00,
2013-01-18 05:09:00,4.4,1.1,30.22,ESE,113,0.0,1.0,86,0.00,,SKC,0.00,VWS V14.01,2013-01-18 11:09:00,
2013-01-18 05:10:00,5.8,2.8,30.20,SSE,147,0.0,2.0,87,0.00,,SKC,0.00,VWS V14.01,2013-01-18 11:10:00,
2013-01-18 05:14:00,4.6,1.3,30.22,SE,133,0.0,1.0,86,0.00,,SKC,0.00,VWS V14.01,2013-01-18 11:14:00,
2013-01-18 05:15:00,5.9,2.9,30.19,ESE,117,1.0,4.0,87,0.00,,SKC,0.00,VWS V14.01,2013-01-18 11:15:00,
2013-01-18 05:19:00,4.8,1.8,30.21,SE,136,0.0,1.0,87,0.00,,SKC,0.00,VWS V14.01,2013-01-18 11:19:00,
2013-01-18 05:20:00,6.0,3.0,30.19,SE,144,2.0,3.0,87,0.00,,SKC,0.00,VWS V14.01,2013-01-18 11:20:00,
2013-01-18 05:24:00,4.9,1.9,30.21,SSE,156,0.0,1.0,87,0.00,,SKC,0.00,VWS V14.01,2013-01-18 11:24:00,
2013-01-18 05:25:00,6.1,3.1,30.19,ESE,120,2.0,3.0,87,0.00,,SKC,0.00,VWS V14.01,2013-01-18 11:25:00,
2013-01-18 05:29:00,5.0,2.0,30.21,ESE,123,0.0,1.0,87,0.00,,SKC,0.00,VWS V14.01,2013-01-18 11:29:00,
2013-01-18 05:30:00,6.2,3.2,30.17,SE,141,1.0,3.0,87,0.00,,SKC,0.00,VWS V14.01,2013-01-18 11:30:00,
2013-01-18 05:34:00,5.1,2.1,30.21,SE,137,1.0,2.0,87,0.00,,SKC,0.00,VWS V14.01,2013-01-18 11:34:00,
2013-01-18 05:35:00,6.3,3.3,30.17,SE,138,1.0,2.0,87,0.00,,SKC,0.00,VWS V14.01,2013-01-18 11:35:00,
2013-01-18 05:39:00,5.2,2.2,30.21,SSE,153,0.0,1.0,87,0.00,,SKC,0.00,VWS V14.01,2013-01-18 11:39:00,
2013-01-18 05:40:00,6.3,3.3,30.17,SE,141,1.0,3.0,87,0.00,,SKC,0.00,VWS V14.01,2013-01-18 11:40:00,
2013-01-18 05:44:00,5.3,2.3,30.21,SE,126,1.0,1.0,87,0.00,,SKC,0.00,VWS V14.01,2013-01-18 11:44:00,
2013-01-18 05:45:00,6.4,3.4,30.16,ESE,117,1.0,2.0,87,0.00,,SKC,0.00,VWS V14.01,2013-01-18 11:45:00,
2013-01-18 05:49:00,5.4,2.4,30.21,ESE,121,1.0,1.0,87,0.00,,SKC,0.00,VWS V14.01,2013-01-18 11:49:00,
2013-01-18 05:50:00,6.5,3.7,30.16,ESE,110,1.0,2.0,88,0.00,,SKC,0.00,VWS V14.01,2013-01-18 11:50:00,
2013-01-18 05:54:00,5.4,2.4,30.21,SSE,149,1.0,2.0,87,0.00,,SKC,0.00,VWS V14.01,2013-01-18 11:54:00,
2013-01-18 05:55:00,6.5,3.7,30.16,ESE,118,1.0,2.0,88,0.00,,SKC,0.00,VWS V14.01,2013-01-18 11:55:00,
2013-01-18 05:59:00,5.5,2.5,30.21,SE,128,1.0,2.0,87,0.00,,SKC,0.00,VWS V14.01,2013-01-18 11:59:00,
2013-01-18 06:00:00,6.6,3.8,30.14,ESE,109,2.0,3.0,88,0.00,,SKC,0.00,VWS V14.01,2013-01-18 12:00:00,
2013-01-18 06:04:00,5.6,2.6,30.20,SE,143,1.0,2.0,87,0.00,,SKC,0.00,VWS V14.01,2013-01-18 12:04:00,
2013-01-18 06:05:00,6.6,3.8,30.14,ESE,120,2.0,2.0,88,0.00,,SKC,0.00,VWS V14.01,2013-01-18 12:05:00,
2013-01-18 06:09:00,5.7,2.7,30.20,SE,137,2.0,2.0,87,0.00,,SKC,0.00,VWS V14.01,2013-01-18 12:09:00,
2013-01-18 06:10:00,6.8,4.0,30.14,ESE,119,3.0,5.0,88,0.00,,SKC,0.00,VWS V14.01,2013-01-18 12:10:00,
2013-01-18 06:14:00,5.8,2.8,30.20,ESE,122,2.0,4.0,87,0.00,,SKC,0.00,VWS V14.01,2013-01-18 12:14:00,
2013-01-18 06:15:00,6.9,4.1,30.14,SE,128,1.0,3.0,88,0.00,,SKC,0.00,VWS V14.01,2013-01-18 12:15:00,
2013-01-18 06:19:00,5.9,2.9,30.19,SSE,156,2.0,3.0,87,0.00,,SKC,0.00,VWS V14.01,2013-01-18 12:19:00,
2013-01-18 06:20:00,7.0,4.2,30.14,SSE,150,2.0,4.0,88,0.00,,SKC,0.00,VWS V14.01,2013-01-18 12:20:00,
2013-01-18 06:24:00,6.1,3.1,30.19,ESE,116,1.0,3.0,87,0.00,,SKC,0.00,VWS V14.01,2013-01-18 12:24:00,
2013-01-18 06:25:00,7.1,4.3,30.14,ESE,122,1.0,4.0,88,0.00,,SKC,0.00,VWS V14.01,2013-01-18 12:25:00,
2013-01-18 06:29:00,6.1,3.1,30.19,ESE,120,1.0,2.0,87,0.00,,SKC,0.00,VWS V14.01,2013-01-18 12:29:00,
2013-01-18 06:30:00,7.3,4.5,30.12,ESE,119,2.0,4.0,88,0.00,,SKC,0.00,VWS V14.01,2013-01-18 12:30:00,
2013-01-18 06:34:00,6.2,3.2,30.17,ESE,120,1.0,2.0,87,0.00,,SKC,0.00,VWS V14.01,2013-01-18 12:34:00,
2013-01-18 06:35:00,7.3,4.5,30.12,SSE,153,2.0,3.0,88,0.00,,SKC,0.00,VWS V14.01,2013-01-18 12:35:00,
2013-01-18 06:39:00,6.3,3.5,30.17,ESE,114,2.0,2.0,88,0.00,,SKC,0.00,VWS V14.01,2013-01-18 12:39:00,
2013-01-18 06:40:00,7.4,4.6,30.12,SE,132,1.0,5.0,88,0.00,,SKC,0.00,VWS V14.01,2013-01-18 12:40:00,
2013-01-18 06:44:00,6.3,3.3,30.17,ESE,122,1.0,2.0,87,0.00,,SKC,0.00,VWS V14.01,2013-01-18 12:44:00,
2013-01-18 06:45:00,7.5,4.7,30.11,East,95,1.0,3.0,88,0.00,,SKC,0.00,VWS V14.01,2013-01-18 12:45:00,
2013-01-18 06:49:00,6.4,3.6,30.16,SE,128,2.0,2.0,88,0.00,,SKC,0.00,VWS V14.01,2013-01-18 12:49:00,
2013-01-18 06:50:00,7.5,4.7,30.11,SE,130,2.0,3.0,88,0.00,,SKC,0.00,VWS V14.01,2013-01-18 12:50:00,
2013-01-18 06:54:00,6.5,3.7,30.16,ESE,120,1.0,2.0,88,0.00,,SKC,0.00,VWS V14.01,2013-01-18 12:54:00,
2013-01-18 06:59:00,6.5,3.7,30.16,SE,145,1.0,2.0,88,0.00,,SKC,0.00,VWS V14.01,2013-01-18 12:59:00,
2013-01-18 07:00:00,7.6,4.8,30.09,SSE,153,2.0,4.0,88,0.00,,SKC,0.00,VWS V14.01,2013-01-18 13:00:00,
2013-01-18 07:04:00,6.6,3.8,30.14,ESE,117,1.0,2.0,88,0.00,,SKC,0.00,VWS V14.01,2013-01-18 13:04:00,
2013-01-18 07:05:00,7.7,4.7,30.09,SE,135,2.0,4.0,87,0.00,,SKC,0.00,VWS V14.01,2013-01-18 13:05:00,
2013-01-18 07:09:00,6.7,3.9,30.14,SSE,157,2.0,5.0,88,0.00,,SKC,0.00,VWS V14.01,2013-01-18 13:09:00,
2013-01-18 07:10:00,7.8,5.0,30.09,ESE,118,2.0,4.0,88,0.00,,SKC,0.00,VWS V14.01,2013-01-18 13:10:00,
2013-01-18 07:14:00,6.8,4.0,30.14,ESE,118,1.0,3.0,88,0.00,,SKC,0.00,VWS V14.01,2013-01-18 13:14:00,
2013-01-18 07:19:00,6.9,4.1,30.14,SE,138,0.0,1.0,88,0.00,,SKC,0.00,VWS V14.01,2013-01-18 13:19:00,
2013-01-18 07:20:00,8.0,5.2,30.07,SE,146,3.0,5.0,88,0.00,,SKC,0.00,VWS V14.01,2013-01-18 13:20:00,
2013-01-18 07:24:00,7.1,4.3,30.14,SE,141,1.0,2.0,88,0.00,,SKC,0.00,VWS V14.01,2013-01-18 13:24:00,
2013-01-18 07:25:00,8.1,5.3,30.07,SE,141,2.0,4.0,88,0.00,,SKC,0.00,VWS V14.01,2013-01-18 13:25:00,
2013-01-18 07:29:00,7.2,4.4,30.14,ESE,110,1.0,2.0,88,0.00,,SKC,0.00,VWS V14.01,2013-01-18 13:29:00,
2013-01-18 07:30:00,8.2,5.4,30.06,ESE,123,2.0,3.0,88,0.00,,SKC,0.00,VWS V14.01,2013-01-18 13:30:00,
2013-01-18 07:34:00,7.3,4.5,30.12,SE,127,1.0,3.0,88,0.00,,SKC,0.00,VWS V14.01,2013-01-18 13:34:00,
2013-01-18 07:35:00,8.3,5.5,30.06,SE,129,3.0,4.0,88,0.00,,SKC,0.00,VWS V14.01,2013-01-18 13:35:00,
2013-01-18 07:39:00,7.3,4.5,30.12,ESE,119,1.0,2.0,88,0.00,,SKC,0.00,VWS V14.01,2013-01-18 13:39:00,
2013-01-18 07:40:00,8.5,5.7,30.06,ESE,122,3.0,4.0,88,0.00,,SKC,0.00,VWS V14.01,2013-01-18 13:40:00,
2013-01-18 07:44:00,7.4,4.6,30.12,SW,217,1.0,2.0,88,0.00,,SKC,0.00,VWS V14.01,2013-01-18 13:44:00,
2013-01-18 07:45:00,8.6,5.5,30.04,SSE,147,2.0,5.0,87,0.00,,SKC,0.00,VWS V14.01,2013-01-18 13:45:00,
2013-01-18 07:49:00,7.5,4.7,30.11,SE,128,1.0,2.0,88,0.00,,SKC,0.00,VWS V14.01,2013-01-18 13:49:00,
2013-01-18 07:50:00,8.6,5.5,30.04,ESE,107,4.0,6.0,87,0.00,,SKC,0.00,VWS V14.01,2013-01-18 13:50:00,
2013-01-18 07:54:00,7.5,4.7,30.11,SSE,149,2.0,3.0,88,0.00,,SKC,0.00,VWS V14.01,2013-01-18 13:54:00,
2013-01-18 07:55:00,8.8,5.7,30.04,SE,136,2.0,7.0,87,0.00,,SKC,0.00,VWS V14.01,2013-01-18 13:55:00,
2013-01-18 08:00:00,7.6,4.8,30.11,ESE,110,3.0,4.0,88,0.00,,SKC,0.00,VWS V14.01,2013-01-18 14:00:00,
2013-01-18 08:05:00,7.7,4.7,30.09,ESE,122,3.0,4.0,87,0.00,,SKC,0.00,VWS V14.01,2013-01-18 14:05:00,
2013-01-18 08:09:00,7.7,4.9,30.09,ESE,119,2.0,4.0,88,0.00,,SKC,0.00,VWS V14.01,2013-01-18 14:09:00,
2013-01-18 08:10:00,9.5,6.4,30.02,East,101,3.0,4.0,87,0.00,,SKC,0.00,VWS V14.01,2013-01-18 14:10:00,
2013-01-18 08:15:00,7.8,5.0,30.09,ESE,117,3.0,5.0,88,0.00,,SKC,0.00,VWS V14.01,2013-01-18 14:15:00,
2013-01-18 08:20:00,7.9,5.1,30.07,ESE,120,2.0,4.0,88,0.00,,SKC,0.00,VWS V14.01,2013-01-18 14:20:00,
2013-01-18 08:25:00,8.0,4.9,30.07,ESE,113,3.0,3.0,87,0.00,,SKC,0.00,VWS V14.01,2013-01-18 14:25:00,
2013-01-18 08:30:00,8.1,5.3,30.07,ESE,115,3.0,3.0,88,0.00,,SKC,0.00,VWS V14.01,2013-01-18 14:30:00,
2013-01-18 08:35:00,8.3,5.5,30.06,ESE,121,3.0,4.0,88,0.00,,SKC,0.00,VWS V14.01,2013-01-18 14:35:00,
2013-01-18 08:40:00,8.4,5.6,30.06,ESE,121,2.0,4.0,88,0.00,,SKC,0.00,VWS V14.01,2013-01-18 14:40:00,
2013-01-18 08:45:00,8.5,5.7,30.06,ESE,119,4.0,5.0,88,0.00,,SKC,0.00,VWS V14.01,2013-01-18 14:45:00,
2013-01-18 08:50:00,8.6,5.5,30.04,SSE,152,1.0,6.0,87,0.00,,SKC,0.00,VWS V14.01,2013-01-18 14:50:00,
2013-01-18 08:55:00,8.7,5.6,30.04,ESE,123,4.0,7.0,87,0.00,,SKC,0.00,VWS V14.01,2013-01-18 14:55:00,
2013-01-18 09:00:00,8.9,5.8,30.04,ESE,110,2.0,5.0,87,0.00,,SKC,0.00,VWS V14.01,2013-01-18 15:00:00,
2013-01-18 09:05:00,9.0,5.9,30.02,SSE,155,0.0,3.0,87,0.00,,SKC,0.00,VWS V14.01,2013-01-18 15:05:00,
2013-01-18 09:10:00,9.3,6.2,30.02,East,96,3.0,4.0,87,0.00,,SKC,0.00,VWS V14.01,2013-01-18 15:10:00,
2013-01-18 09:15:00,9.6,6.5,30.02,SE,126,3.0,5.0,87,0.00,,SKC,0.00,VWS V14.01,2013-01-18 15:15:00,
2013-01-18 09:20:00,9.9,6.8,30.01,ESE,106,3.0,4.0,87,0.00,,SKC,0.00,VWS V14.01,2013-01-18 15:20:00,
2013-01-18 09:25:00,10.2,6.8,30.01,SE,138,2.0,3.0,86,0.00,,SKC,0.00,VWS V14.01,2013-01-18 15:25:00,
2013-01-18 09:30:00,10.4,7.1,30.01,South,173,1.0,2.0,86,0.00,,SKC,0.00,VWS V14.01,2013-01-18 15:30:00,
2013-01-18 09:35:00,10.7,7.3,30.01,SE,139,1.0,3.0,86,0.00,,SKC,0.00,VWS V14.01,2013-01-18 15:35:00,
2013-01-18 09:40:00,11.0,7.6,30.01,ESE,119,3.0,3.0,86,0.00,,SKC,0.00,VWS V14.01,2013-01-18 15:40:00,
2013-01-18 09:45:00,11.4,8.0,30.01,ESE,123,3.0,4.0,86,0.00,,SKC,0.00,VWS V14.01,2013-01-18 15:45:00,
2013-01-18 09:50:00,11.7,8.3,30.00,SE,129,1.0,4.0,86,0.00,,SKC,0.00,VWS V14.01,2013-01-18 15:50:00,
2013-01-18 09:55:00,12.0,8.6,30.00,SSE,153,2.0,4.0,86,0.00,,SKC,0.00,VWS V14.01,2013-01-18 15:55:00,
2013-01-18 10:00:00,12.2,8.8,30.00,SSE,155,2.0,4.0,86,0.00,,SKC,0.00,VWS V14.01,2013-01-18 16:00:00,
2013-01-18 10:05:00,12.5,9.1,29.99,SE,139,4.0,5.0,86,0.00,,SKC,0.00,VWS V14.01,2013-01-18 16:05:00,
2013-01-18 10:10:00,12.6,9.2,29.99,SSE,152,2.0,5.0,86,0.00,,SKC,0.00,VWS V14.01,2013-01-18 16:10:00,
2013-01-18 10:15:00,12.9,9.5,29.99,SE,139,1.0,7.0,86,0.00,,SKC,0.00,VWS V14.01,2013-01-18 16:15:00,
2013-01-18 10:20:00,13.1,9.7,29.97,ESE,119,2.0,3.0,86,0.00,,SKC,0.00,VWS V14.01,2013-01-18 16:20:00,
2013-01-18 10:25:00,13.5,10.1,29.97,ESE,107,3.0,4.0,86,0.00,,SKC,0.00,VWS V14.01,2013-01-18 16:25:00,
2013-01-18 10:30:00,13.7,10.3,29.97,WSW,254,2.0,7.0,86,0.00,,SKC,0.00,VWS V14.01,2013-01-18 16:30:00,
2013-01-18 10:35:00,14.0,10.6,29.97,SSE,165,2.0,4.0,86,0.00,,SKC,0.00,VWS V14.01,2013-01-18 16:35:00,
2013-01-18 10:40:00,14.3,10.6,29.97,SE,131,2.0,5.0,85,0.00,,SKC,0.00,VWS V14.01,2013-01-18 16:40:00,
2013-01-18 10:45:00,14.5,11.1,29.97,South,176,2.0,4.0,86,0.00,,SKC,0.00,VWS V14.01,2013-01-18 16:45:00,
2013-01-18 10:50:00,14.9,11.5,29.95,SSE,155,0.0,4.0,86,0.00,,SKC,0.00,VWS V14.01,2013-01-18 16:50:00,
2013-01-18 10:55:00,15.3,11.9,29.95,South,187,1.0,3.0,86,0.00,,SKC,0.00,VWS V14.01,2013-01-18 16:55:00,
2013-01-18 11:00:00,15.7,12.3,29.95,ESE,115,4.0,4.0,86,0.00,,SKC,0.00,VWS V14.01,2013-01-18 17:00:00,
2013-01-18 11:05:00,16.0,12.3,29.93,SE,133,0.0,5.0,85,0.00,,SKC,0.00,VWS V14.01,2013-01-18 17:05:00,
2013-01-18 11:10:00,16.4,12.9,29.93,SE,133,3.0,3.0,86,0.00,,SKC,0.00,VWS V14.01,2013-01-18 17:10:00,
2013-01-18 11:15:00,16.7,13.0,29.93,SSW,208,1.0,4.0,85,0.00,,SKC,0.00,VWS V14.01,2013-01-18 17:15:00,
2013-01-18 11:20:00,17.0,13.3,29.92,SE,141,1.0,3.0,85,0.00,,SKC,0.00,VWS V14.01,2013-01-18 17:20:00,
2013-01-18 11:25:00,17.1,13.4,29.92,SE,129,2.0,4.0,85,0.00,,SKC,0.00,VWS V14.01,2013-01-18 17:25:00,
2013-01-18 11:30:00,17.1,13.4,29.92,SW,215,0.0,4.0,85,0.00,,SKC,0.00,VWS V14.01,2013-01-18 17:30:00,
2013-01-18 11:35:00,17.2,13.5,29.91,SSW,206,1.0,3.0,85,0.00,,SKC,0.00,VWS V14.01,2013-01-18 17:35:00,
2013-01-18 11:40:00,17.3,13.6,29.91,SSW,208,3.0,3.0,85,0.00,,SKC,0.00,VWS V14.01,2013-01-18 17:40:00,
2013-01-18 11:45:00,17.5,13.8,29.91,SSW,213,2.0,2.0,85,0.00,,SKC,0.00,VWS V14.01,2013-01-18 17:45:00,
2013-01-18 11:50:00,17.6,13.9,29.90,SSE,151,1.0,2.0,85,0.00,,SKC,0.00,VWS V14.01,2013-01-18 17:50:00,
2013-01-18 11:55:00,17.7,14.2,29.90,ESE,122,2.0,4.0,86,0.00,,SKC,0.00,VWS V14.01,2013-01-18 17:55:00,
2013-01-18 12:00:00,17.9,14.2,29.90,SE,133,0.0,3.0,85,0.00,,SKC,0.00,VWS V14.01,2013-01-18 18:00:00,
2013-01-18 12:05:00,18.3,14.6,29.88,ESE,113,1.0,1.0,85,0.00,,SKC,0.00,VWS V14.01,2013-01-18 18:05:00,
2013-01-18 12:10:00,18.6,14.9,29.88,SE,144,1.0,3.0,85,0.00,,SKC,0.00,VWS V14.01,2013-01-18 18:10:00,
2013-01-18 12:15:00,18.6,14.9,29.88,SE,136,1.0,3.0,85,0.00,,SKC,0.00,VWS V14.01,2013-01-18 18:15:00,
2013-01-18 12:20:00,22.1,17.7,29.81,SSE,159,0.0,2.0,83,0.00,,SKC,0.00,VWS V14.01,2013-01-18 18:20:00,
2013-01-18 12:21:00,18.7,14.9,29.87,SSW,202,0.0,2.0,85,0.00,,SKC,0.00,VWS V14.01,2013-01-18 18:21:00,
2013-01-18 12:25:00,22.4,18.0,29.81,ESE,118,1.0,2.0,83,0.00,,SKC,0.00,VWS V14.01,2013-01-18 18:25:00,
2013-01-18 12:26:00,19.0,15.2,29.87,ESE,120,0.0,0.0,85,0.00,,SKC,0.00,VWS V14.01,2013-01-18 18:26:00,
2013-01-18 12:30:00,22.8,18.4,29.80,SSW,203,0.0,1.0,83,0.00,,SKC,0.00,VWS V14.01,2013-01-18 18:30:00,
2013-01-18 12:31:00,19.3,15.5,29.87,SSE,148,0.0,0.0,85,0.00,,SKC,0.00,VWS V14.01,2013-01-18 18:31:00,
2013-01-18 12:35:00,23.2,18.8,29.80,SSE,168,0.0,0.0,83,0.00,,SKC,0.00,VWS V14.01,2013-01-18 18:35:00,
2013-01-18 12:36:00,19.6,15.8,29.85,SSE,151,0.0,0.0,85,0.00,,SKC,0.00,VWS V14.01,2013-01-18 18:36:00,
2013-01-18 12:40:00,23.5,19.1,29.80,SSE,168,0.0,0.0,83,0.00,,SKC,0.00,VWS V14.01,2013-01-18 18:40:00,
2013-01-18 12:41:00,19.9,15.9,29.85,South,191,0.0,4.0,84,0.00,,SKC,0.00,VWS V14.01,2013-01-18 18:41:00,
2013-01-18 12:46:00,20.3,16.2,29.85,SSE,148,0.0,2.0,84,0.00,,SKC,0.00,VWS V14.01,2013-01-18 18:46:00,
2013-01-18 12:50:00,24.4,20.0,29.80,SSW,207,0.0,1.0,83,0.00,,SKC,0.00,VWS V14.01,2013-01-18 18:50:00,
2013-01-18 12:51:00,20.5,16.4,29.83,ESE,117,2.0,3.0,84,0.00,,SKC,0.00,VWS V14.01,2013-01-18 18:51:00,
2013-01-18 12:55:00,24.8,20.4,29.80,SSW,202,0.0,0.0,83,0.00,,SKC,0.00,VWS V14.01,2013-01-18 18:55:00,
2013-01-18 12:56:00,20.6,16.5,29.83,SSW,211,0.0,2.0,84,0.00,,SKC,0.00,VWS V14.01,2013-01-18 18:56:00,
2013-01-18 13:01:00,20.9,16.8,29.83,SE,130,0.0,2.0,84,0.00,,SKC,0.00,VWS V14.01,2013-01-18 19:01:00,
2013-01-18 13:05:00,25.3,20.9,29.79,WSW,253,0.0,2.0,83,0.00,,SKC,0.00,VWS V14.01,2013-01-18 19:05:00,
2013-01-18 13:06:00,21.2,17.1,29.82,SE,139,0.0,2.0,84,0.00,,SKC,0.00,VWS V14.01,2013-01-18 19:06:00,
2013-01-18 13:10:00,25.8,21.4,29.79,WSW,248,0.0,1.0,83,0.00,,SKC,0.00,VWS V14.01,2013-01-18 19:10:00,
2013-01-18 13:11:00,21.5,17.4,29.82,SSW,207,0.0,3.0,84,0.00,,SKC,0.00,VWS V14.01,2013-01-18 19:11:00,
2013-01-18 13:15:00,26.3,21.6,29.78,ESE,118,0.0,1.0,82,0.00,,SKC,0.00,VWS V14.01,2013-01-18 19:15:00,
2013-01-18 13:16:00,21.9,17.5,29.82,SE,133,1.0,1.0,83,0.00,,SKC,0.00,VWS V14.01,2013-01-18 19:16:00,
2013-01-18 13:20:00,26.7,21.7,29.78,West,259,0.0,1.0,81,0.00,,SKC,0.00,VWS V14.01,2013-01-18 19:20:00,
2013-01-18 13:21:00,22.1,17.7,29.81,SSE,157,1.0,2.0,83,0.00,,SKC,0.00,VWS V14.01,2013-01-18 19:21:00,
2013-01-18 13:25:00,26.7,21.4,29.78,West,276,1.0,3.0,80,0.00,,SKC,0.00,VWS V14.01,2013-01-18 19:25:00,
2013-01-18 13:26:00,22.3,17.9,29.81,SSW,207,0.0,2.0,83,0.00,,SKC,0.00,VWS V14.01,2013-01-18 19:26:00,
2013-01-18 13:31:00,22.7,18.3,29.81,SSW,203,0.0,1.0,83,0.00,,SKC,0.00,VWS V14.01,2013-01-18 19:31:00,
2013-01-18 13:35:00,27.0,22.0,29.77,WSW,248,0.0,1.0,81,0.00,,SKC,0.00,VWS V14.01,2013-01-18 19:35:00,
2013-01-18 13:36:00,23.1,18.7,29.80,SSE,159,0.0,0.0,83,0.00,,SKC,0.00,VWS V14.01,2013-01-18 19:36:00,
2013-01-18 13:40:00,27.2,22.1,29.77,WSW,243,0.0,1.0,81,0.00,,SKC,0.00,VWS V14.01,2013-01-18 19:40:00,
2013-01-18 13:41:00,23.5,19.1,29.80,SSE,168,0.0,0.0,83,0.00,,SKC,0.00,VWS V14.01,2013-01-18 19:41:00,
2013-01-18 13:45:00,27.5,22.5,29.78,SW,229,0.0,2.0,81,0.00,,SKC,0.00,VWS V14.01,2013-01-18 19:45:00,
2013-01-18 13:46:00,23.8,19.4,29.80,SSE,168,0.0,0.0,83,0.00,,SKC,0.00,VWS V14.01,2013-01-18 19:46:00,
2013-01-18 13:50:00,27.5,22.5,29.78,SW,229,0.0,1.0,81,0.00,,SKC,0.00,VWS V14.01,2013-01-18 19:50:00,
2013-01-18 13:51:00,24.3,19.9,29.80,SSW,207,0.0,1.0,83,0.00,,SKC,0.00,VWS V14.01,2013-01-18 19:51:00,
2013-01-18 13:55:00,27.7,22.6,29.78,SW,229,0.0,0.0,81,0.00,,SKC,0.00,VWS V14.01,2013-01-18 19:55:00,
2013-01-18 13:56:00,24.7,20.3,29.80,WSW,248,0.0,0.0,83,0.00,,SKC,0.00,VWS V14.01,2013-01-18 19:56:00,
2013-01-18 14:00:00,27.7,22.6,29.77,SSW,200,0.0,2.0,81,0.00,,SKC,0.00,VWS V14.01,2013-01-18 20:00:00,
2013-01-18 14:01:00,25.1,20.7,29.79,SSW,210,1.0,2.0,83,0.00,,SKC,0.00,VWS V14.01,2013-01-18 20:01:00,
2013-01-18 14:05:00,27.8,22.7,29.77,SSW,200,0.0,0.0,81,0.00,,SKC,0.00,VWS V14.01,2013-01-18 20:05:00,
2013-01-18 14:06:00,25.3,20.9,29.79,WSW,253,1.0,2.0,83,0.00,,SKC,0.00,VWS V14.01,2013-01-18 20:06:00,
2013-01-18 14:10:00,27.8,22.7,29.77,SSW,200,0.0,0.0,81,0.00,,SKC,0.00,VWS V14.01,2013-01-18 20:10:00,
2013-01-18 14:11:00,25.7,21.3,29.79,WSW,254,0.0,1.0,83,0.00,,SKC,0.00,VWS V14.01,2013-01-18 20:11:00,
2013-01-18 14:15:00,27.8,23.0,29.76,SSW,200,0.0,0.0,82,0.00,,SKC,0.00,VWS V14.01,2013-01-18 20:15:00,
2013-01-18 14:16:00,26.2,21.8,29.78,SE,136,1.0,1.0,83,0.00,,SKC,0.00,VWS V14.01,2013-01-18 20:16:00,
2013-01-18 14:20:00,27.6,23.1,29.76,SSW,199,0.0,0.0,83,0.00,,SKC,0.00,VWS V14.01,2013-01-18 20:20:00,
2013-01-18 14:21:00,26.7,22.0,29.78,West,268,1.0,1.0,82,0.00,,SKC,0.00,VWS V14.01,2013-01-18 20:21:00,
2013-01-18 14:25:00,27.5,23.0,29.76,SSW,199,0.0,0.0,83,0.00,,SKC,0.00,VWS V14.01,2013-01-18 20:25:00,
2013-01-18 14:26:00,26.7,21.4,29.78,SW,230,0.0,3.0,80,0.00,,SKC,0.00,VWS V14.01,2013-01-18 20:26:00,
2013-01-18 14:30:00,27.4,22.9,29.76,SSW,200,0.0,0.0,83,0.00,,SKC,0.00,VWS V14.01,2013-01-18 20:30:00,
2013-01-18 14:31:00,26.7,21.7,29.77,East,101,0.0,2.0,81,0.00,,SKC,0.00,VWS V14.01,2013-01-18 20:31:00,
2013-01-18 14:36:00,27.0,22.0,29.77,ESE,102,1.0,1.0,81,0.00,,SKC,0.00,VWS V14.01,2013-01-18 20:36:00,
2013-01-18 14:40:00,27.4,22.9,29.76,SSW,199,0.0,0.0,83,0.00,,SKC,0.00,VWS V14.01,2013-01-18 20:40:00,
2013-01-18 14:41:00,27.1,22.1,29.77,WSW,242,0.0,1.0,81,0.00,,SKC,0.00,VWS V14.01,2013-01-18 20:41:00,
2013-01-18 14:45:00,27.4,23.2,29.76,SSW,200,0.0,0.0,84,0.00,,SKC,0.00,VWS V14.01,2013-01-18 20:45:00,
2013-01-18 14:46:00,27.4,22.4,29.78,SW,229,0.0,2.0,81,0.00,,SKC,0.00,VWS V14.01,2013-01-18 20:46:00,
2013-01-18 14:50:00,27.4,23.2,29.76,SSW,200,0.0,0.0,84,0.00,,SKC,0.00,VWS V14.01,2013-01-18 20:50:00,
2013-01-18 14:51:00,27.5,22.5,29.78,SW,229,0.0,1.0,81,0.00,,SKC,0.00,VWS V14.01,2013-01-18 20:51:00,
2013-01-18 14:55:00,27.4,23.2,29.76,SSW,200,0.0,0.0,84,0.00,,SKC,0.00,VWS V14.01,2013-01-18 20:55:00,
2013-01-18 14:57:00,27.7,22.6,29.78,SW,229,0.0,0.0,81,0.00,,SKC,0.00,VWS V14.01,2013-01-18 20:57:00,
2013-01-18 15:00:00,27.3,23.4,29.76,SSW,200,0.0,0.0,85,0.00,,SKC,0.00,VWS V14.01,2013-01-18 21:00:00,
2013-01-18 15:02:00,27.7,22.6,29.77,SSW,199,0.0,2.0,81,0.00,,SKC,0.00,VWS V14.01,2013-01-18 21:02:00,
2013-01-18 15:05:00,27.3,23.4,29.76,SSW,200,0.0,0.0,85,0.00,,SKC,0.00,VWS V14.01,2013-01-18 21:05:00,
2013-01-18 15:07:00,27.8,22.7,29.77,SSW,201,0.0,0.0,81,0.00,,SKC,0.00,VWS V14.01,2013-01-18 21:07:00,
2013-01-18 15:10:00,27.3,23.4,29.76,SSW,200,0.0,0.0,85,0.00,,SKC,0.00,VWS V14.01,2013-01-18 21:10:00,
2013-01-18 15:12:00,27.8,22.7,29.77,SSW,199,0.0,0.0,81,0.00,,SKC,0.00,VWS V14.01,2013-01-18 21:12:00,
2013-01-18 15:15:00,27.2,23.6,29.75,SSW,199,0.0,0.0,86,0.00,,SKC,0.00,VWS V14.01,2013-01-18 21:15:00,
2013-01-18 15:17:00,27.8,23.0,29.76,SSW,199,0.0,0.0,82,0.00,,SKC,0.00,VWS V14.01,2013-01-18 21:17:00,
2013-01-18 15:20:00,27.1,23.5,29.75,SSW,199,0.0,0.0,86,0.00,,SKC,0.00,VWS V14.01,2013-01-18 21:20:00,
2013-01-18 15:22:00,27.6,22.8,29.76,SSW,200,0.0,0.0,82,0.00,,SKC,0.00,VWS V14.01,2013-01-18 21:22:00,
2013-01-18 15:25:00,27.0,23.4,29.75,SSW,200,0.0,0.0,86,0.00,,SKC,0.00,VWS V14.01,2013-01-18 21:25:00,
2013-01-18 15:27:00,27.5,23.0,29.76,SSW,200,0.0,0.0,83,0.00,,SKC,0.00,VWS V14.01,2013-01-18 21:27:00,
2013-01-18 15:30:00,26.8,23.5,29.75,SSW,200,0.0,0.0,87,0.00,,SKC,0.00,VWS V14.01,2013-01-18 21:30:00,
2013-01-18 15:32:00,27.4,22.9,29.76,SSW,200,0.0,0.0,83,0.00,,SKC,0.00,VWS V14.01,2013-01-18 21:32:00,
2013-01-18 15:37:00,27.4,22.9,29.76,SSW,200,0.0,0.0,83,0.00,,SKC,0.00,VWS V14.01,2013-01-18 21:37:00,
2013-01-18 15:40:00,26.7,23.4,29.75,SSW,199,0.0,0.0,87,0.00,,SKC,0.00,VWS V14.01,2013-01-18 21:40:00,
2013-01-18 15:42:00,27.4,22.9,29.76,SSW,200,0.0,0.0,83,0.00,,SKC,0.00,VWS V14.01,2013-01-18 21:42:00,
2013-01-18 15:45:00,26.6,23.3,29.74,SSW,199,0.0,0.0,87,0.00,,SKC,0.00,VWS V14.01,2013-01-18 21:45:00,
2013-01-18 15:47:00,27.4,23.2,29.76,SSW,200,0.0,0.0,84,0.00,,SKC,0.00,VWS V14.01,2013-01-18 21:47:00,
2013-01-18 15:50:00,26.5,23.4,29.74,SSW,200,0.0,0.0,88,0.00,,SKC,0.00,VWS V14.01,2013-01-18 21:50:00,
2013-01-18 15:52:00,27.4,23.2,29.76,SSW,200,0.0,0.0,84,0.00,,SKC,0.00,VWS V14.01,2013-01-18 21:52:00,
2013-01-18 15:55:00,26.3,23.2,29.74,SSW,200,0.0,0.0,88,0.00,,SKC,0.00,VWS V14.01,2013-01-18 21:55:00,
2013-01-18 15:57:00,27.4,23.2,29.76,SSW,200,0.0,0.0,84,0.00,,SKC,0.00,VWS V14.01,2013-01-18 21:57:00,
2013-01-18 16:00:00,26.2,23.1,29.75,SSW,200,0.0,0.0,88,0.00,,SKC,0.00,VWS V14.01,2013-01-18 22:00:00,
2013-01-18 16:02:00,27.3,23.4,29.76,SSW,200,0.0,0.0,85,0.00,,SKC,0.00,VWS V14.01,2013-01-18 22:02:00,
2013-01-18 16:05:00,26.0,23.2,29.75,SSW,199,0.0,0.0,89,0.00,,SKC,0.00,VWS V14.01,2013-01-18 22:05:00,
2013-01-18 16:07:00,27.3,23.4,29.76,SSW,200,0.0,0.0,85,0.00,,SKC,0.00,VWS V14.01,2013-01-18 22:07:00,
2013-01-18 16:12:00,27.3,23.4,29.76,SSW,199,0.0,0.0,85,0.00,,SKC,0.00,VWS V14.01,2013-01-18 22:12:00,
2013-01-18 16:15:00,25.7,22.9,29.76,SSW,200,0.0,0.0,89,0.00,,SKC,0.00,VWS V14.01,2013-01-18 22:15:00,
2013-01-18 16:18:00,27.2,23.6,29.75,SSW,200,0.0,0.0,86,0.00,,SKC,0.00,VWS V14.01,2013-01-18 22:18:00,
2013-01-18 16:20:00,25.5,22.7,29.76,SSW,199,0.0,0.0,89,0.00,,SKC,0.00,VWS V14.01,2013-01-18 22:20:00,
2013-01-18 16:23:00,27.1,23.5,29.75,SSW,200,0.0,0.0,86,0.00,,SKC,0.00,VWS V14.01,2013-01-18 22:23:00,
2013-01-18 16:25:00,25.4,22.6,29.76,SSW,199,0.0,0.0,89,0.00,,SKC,0.00,VWS V14.01,2013-01-18 22:25:00,
2013-01-18 16:28:00,27.0,23.4,29.75,SSW,200,0.0,0.0,86,0.00,,SKC,0.00,VWS V14.01,2013-01-18 22:28:00,
2013-01-18 16:30:00,25.3,22.5,29.75,SSW,200,0.0,0.0,89,0.00,,SKC,0.00,VWS V14.01,2013-01-18 22:30:00,
2013-01-18 16:33:00,26.9,23.6,29.75,SSW,200,0.0,0.0,87,0.00,,SKC,0.00,VWS V14.01,2013-01-18 22:33:00,
2013-01-18 16:35:00,25.1,22.3,29.75,SSW,200,0.0,0.0,89,0.00,,SKC,0.00,VWS V14.01,2013-01-18 22:35:00,
2013-01-18 16:38:00,26.7,23.4,29.75,SSW,199,0.0,0.0,87,0.00,,SKC,0.00,VWS V14.01,2013-01-18 22:38:00,
2013-01-18 16:40:00,25.0,22.2,29.75,SSW,200,0.0,0.0,89,0.00,,SKC,0.00,VWS V14.01,2013-01-18 22:40:00,
2013-01-18 16:43:00,26.7,23.4,29.75,SSW,199,0.0,0.0,87,0.00,,SKC,0.00,VWS V14.01,2013-01-18 22:43:00,
2013-01-18 16:45:00,24.9,22.1,29.75,SSW,199,0.0,0.0,89,0.00,,SKC,0.00,VWS V14.01,2013-01-18 22:45:00,
2013-01-18 16:48:00,26.5,23.2,29.74,SSW,200,0.0,0.0,87,0.00,,SKC,0.00,VWS V14.01,2013-01-18 22:48:00,
2013-01-18 16:50:00,24.8,22.0,29.75,SSW,200,0.0,0.0,89,0.00,,SKC,0.00,VWS V14.01,2013-01-18 22:50:00,
2013-01-18 16:53:00,26.4,23.3,29.74,SSW,199,0.0,0.0,88,0.00,,SKC,0.00,VWS V14.01,2013-01-18 22:53:00,
2013-01-18 16:55:00,24.7,22.2,29.75,SSW,199,0.0,0.0,90,0.00,,SKC,0.00,VWS V14.01,2013-01-18 22:55:00,
2013-01-18 16:59:00,26.3,23.2,29.74,SSW,199,0.0,0.0,88,0.00,,SKC,0.00,VWS V14.01,2013-01-18 22:59:00,
2013-01-18 17:00:00,24.6,22.1,29.74,SSW,199,0.0,0.0,90,0.00,,SKC,0.00,VWS V14.01,2013-01-18 23:00:00,
2013-01-18 17:04:00,26.1,23.3,29.75,SSW,200,0.0,0.0,89,0.00,,SKC,0.00,VWS V14.01,2013-01-18 23:04:00,
2013-01-18 17:05:00,24.5,22.0,29.74,SSW,200,0.0,0.0,90,0.00,,SKC,0.00,VWS V14.01,2013-01-18 23:05:00,
2013-01-18 17:09:00,25.9,23.1,29.75,SSW,200,0.0,0.0,89,0.00,,SKC,0.00,VWS V14.01,2013-01-18 23:09:00,
2013-01-18 17:10:00,24.5,22.0,29.74,SSW,200,0.0,0.0,90,0.00,,SKC,0.00,VWS V14.01,2013-01-18 23:10:00,
2013-01-18 17:14:00,25.7,22.9,29.75,SSW,199,0.0,0.0,89,0.00,,SKC,0.00,VWS V14.01,2013-01-18 23:14:00,
2013-01-18 17:15:00,24.4,21.9,29.73,SSW,201,0.0,0.0,90,0.00,,SKC,0.00,VWS V14.01,2013-01-18 23:15:00,
2013-01-18 17:19:00,25.6,22.8,29.76,SSW,200,0.0,0.0,89,0.00,,SKC,0.00,VWS V14.01,2013-01-18 23:19:00,
2013-01-18 17:20:00,24.4,21.9,29.73,SSW,199,0.0,0.0,90,0.00,,SKC,0.00,VWS V14.01,2013-01-18 23:20:00,
2013-01-18 17:24:00,25.4,22.6,29.76,SSW,200,0.0,0.0,89,0.00,,SKC,0.00,VWS V14.01,2013-01-18 23:24:00,
2013-01-18 17:25:00,24.3,21.8,29.73,SE,130,0.0,0.0,90,0.00,,SKC,0.00,VWS V14.01,2013-01-18 23:25:00,
2013-01-18 17:29:00,25.4,22.6,29.76,SSW,200,0.0,0.0,89,0.00,,SKC,0.00,VWS V14.01,2013-01-18 23:29:00,
2013-01-18 17:30:00,24.2,21.7,29.71,SE,130,0.0,0.0,90,0.00,,SKC,0.00,VWS V14.01,2013-01-18 23:30:00,
2013-01-18 17:34:00,25.2,22.4,29.75,SSW,200,0.0,0.0,89,0.00,,SKC,0.00,VWS V14.01,2013-01-18 23:34:00,
2013-01-18 17:35:00,24.1,21.9,29.71,SE,131,0.0,0.0,91,0.00,,SKC,0.00,VWS V14.01,2013-01-18 23:35:00,
2013-01-18 17:39:00,25.1,22.3,29.75,SSW,200,0.0,0.0,89,0.00,,SKC,0.00,VWS V14.01,2013-01-18 23:39:00,
2013-01-18 17:40:00,24.2,22.0,29.71,SE,131,0.0,0.0,91,0.00,,SKC,0.00,VWS V14.01,2013-01-18 23:40:00,
2013-01-18 17:44:00,25.0,22.2,29.75,SSW,199,0.0,0.0,89,0.00,,SKC,0.00,VWS V14.01,2013-01-18 23:44:00,
2013-01-18 17:45:00,24.2,22.0,29.71,SE,131,0.0,0.0,91,0.00,,SKC,0.00,VWS V14.01,2013-01-18 23:45:00,
2013-01-18 17:49:00,24.8,22.0,29.75,SSW,199,0.0,0.0,89,0.00,,SKC,0.00,VWS V14.01,2013-01-18 23:49:00,
2013-01-18 17:50:00,24.0,21.8,29.71,SE,130,0.0,0.0,91,0.00,,SKC,0.00,VWS V14.01,2013-01-18 23:50:00,
2013-01-18 17:54:00,24.8,22.3,29.75,SSW,200,0.0,0.0,90,0.00,,SKC,0.00,VWS V14.01,2013-01-18 23:54:00,
2013-01-18 17:55:00,24.0,21.8,29.71,SE,130,0.0,0.0,91,0.00,,SKC,0.00,VWS V14.01,2013-01-18 23:55:00,
2013-01-18 17:59:00,24.6,22.1,29.75,SSW,201,0.0,0.0,90,0.00,,SKC,0.00,VWS V14.01,2013-01-18 23:59:00,
2013-01-18 18:00:00,24.1,21.9,29.72,SE,130,0.0,0.0,91,0.00,,SKC,0.00,VWS V14.01,2013-01-19 00:00:00,
2013-01-18 18:04:00,24.6,22.1,29.74,SSW,199,0.0,0.0,90,0.00,,SKC,0.00,VWS V14.01,2013-01-19 00:04:00,
2013-01-18 18:05:00,24.2,22.2,29.72,SE,131,0.0,0.0,92,0.00,,SKC,0.00,VWS V14.01,2013-01-19 00:05:00,
2013-01-18 18:09:00,24.5,22.0,29.74,SSW,200,0.0,0.0,90,0.00,,SKC,0.00,VWS V14.01,2013-01-19 00:09:00,
2013-01-18 18:10:00,24.1,21.9,29.72,SE,131,0.0,0.0,91,0.00,,SKC,0.00,VWS V14.01,2013-01-19 00:10:00,
2013-01-18 18:14:00,24.5,22.0,29.74,SSW,201,0.0,0.0,90,0.00,,SKC,0.00,VWS V14.01,2013-01-19 00:14:00,
2013-01-18 18:15:00,24.1,21.9,29.71,SE,130,0.0,0.0,91,0.00,,SKC,0.00,VWS V14.01,2013-01-19 00:15:00,
2013-01-18 18:19:00,24.4,21.9,29.73,SSW,200,0.0,0.0,90,0.00,,SKC,0.00,VWS V14.01,2013-01-19 00:19:00,
2013-01-18 18:20:00,24.1,21.9,29.71,SE,131,0.0,0.0,91,0.00,,SKC,0.00,VWS V14.01,2013-01-19 00:20:00,
2013-01-18 18:24:00,24.3,21.8,29.73,SE,131,0.0,0.0,90,0.00,,SKC,0.00,VWS V14.01,2013-01-19 00:24:00,
2013-01-18 18:25:00,24.1,22.1,29.71,SE,131,0.0,0.0,92,0.00,,SKC,0.00,VWS V14.01,2013-01-19 00:25:00,
2013-01-18 18:29:00,24.2,21.7,29.73,SE,130,0.0,0.0,90,0.00,,SKC,0.00,VWS V14.01,2013-01-19 00:29:00,
2013-01-18 18:30:00,24.0,21.8,29.71,SE,131,0.0,0.0,91,0.00,,SKC,0.00,VWS V14.01,2013-01-19 00:30:00,
2013-01-18 18:34:00,24.1,21.6,29.71,SE,130,0.0,0.0,90,0.00,,SKC,0.00,VWS V14.01,2013-01-19 00:34:00,
2013-01-18 18:35:00,24.0,21.8,29.71,SE,130,0.0,0.0,91,0.00,,SKC,0.00,VWS V14.01,2013-01-19 00:35:00,
2013-01-18 18:39:00,24.2,22.0,29.71,SE,130,0.0,0.0,91,0.00,,SKC,0.00,VWS V14.01,2013-01-19 00:39:00,
2013-01-18 18:44:00,24.2,22.0,29.71,SE,130,0.0,0.0,91,0.00,,SKC,0.00,VWS V14.01,2013-01-19 00:44:00,
2013-01-18 18:45:00,23.9,21.9,29.72,SE,130,0.0,0.0,92,0.00,,SKC,0.00,VWS V14.01,2013-01-19 00:45:00,
2013-01-18 18:50:00,24.2,22.0,29.71,SE,131,0.0,0.0,91,0.00,,SKC,0.00,VWS V14.01,2013-01-19 00:50:00,
2013-01-18 18:55:00,24.1,21.9,29.71,SE,130,0.0,0.0,91,0.00,,SKC,0.00,VWS V14.01,2013-01-19 00:55:00,
2013-01-18 19:00:00,24.0,21.8,29.71,SE,131,0.0,0.0,91,0.00,,SKC,0.00,VWS V14.01,2013-01-19 01:00:00,
2013-01-18 19:05:00,24.2,22.2,29.72,SE,131,0.0,0.0,92,0.00,,SKC,0.00,VWS V14.01,2013-01-19 01:05:00,
2013-01-18 19:10:00,24.1,21.9,29.72,SE,130,0.0,0.0,91,0.00,,SKC,0.00,VWS V14.01,2013-01-19 01:10:00,
2013-01-18 19:15:00,24.1,21.9,29.72,SE,130,0.0,0.0,91,0.00,,SKC,0.00,VWS V14.01,2013-01-19 01:15:00,
2013-01-18 19:20:00,24.2,22.0,29.71,SE,130,0.0,0.0,91,0.00,,SKC,0.00,VWS V14.01,2013-01-19 01:20:00,
2013-01-18 19:25:00,24.2,22.2,29.71,SE,131,0.0,0.0,92,0.00,,SKC,0.00,VWS V14.01,2013-01-19 01:25:00,
2013-01-18 19:30:00,24.1,22.1,29.71,SE,130,0.0,0.0,92,0.00,,SKC,0.00,VWS V14.01,2013-01-19 01:30:00,
2013-01-18 19:35:00,24.0,21.8,29.71,SE,130,0.0,0.0,91,0.00,,SKC,0.00,VWS V14.01,2013-01-19 01:35:00,
2013-01-18 19:40:00,24.0,22.0,29.71,SE,130,0.0,0.0,92,0.00,,SKC,0.00,VWS V14.01,2013-01-19 01:40:00,
2013-01-18 19:45:00,23.9,21.9,29.71,SE,130,0.0,0.0,92,0.00,,SKC,0.00,VWS V14.01,2013-01-19 01:45:00,
2013-01-18 19:50:00,23.9,21.9,29.72,SE,130,0.0,0.0,92,0.00,,SKC,0.00,VWS V14.01,2013-01-19 01:50:00,
2013-01-18 19:55:00,23.9,21.9,29.72,SE,130,0.0,0.0,92,0.00,,SKC,0.00,VWS V14.01,2013-01-19 01:55:00,
2013-01-18 20:00:00,24.0,22.0,29.72,SE,130,0.0,0.0,92,0.00,,SKC,0.00,VWS V14.01,2013-01-19 02:00:00,
2013-01-18 20:05:00,24.0,22.0,29.72,SE,130,0.0,0.0,92,0.00,,SKC,0.00,VWS V14.01,2013-01-19 02:05:00,
2013-01-18 20:10:00,24.0,22.0,29.72,SE,131,0.0,0.0,92,0.00,,SKC,0.00,VWS V14.01,2013-01-19 02:10:00,
2013-01-18 20:15:00,24.0,22.0,29.72,SE,130,0.0,0.0,92,0.00,,SKC,0.00,VWS V14.01,2013-01-19 02:15:00,
2013-01-18 20:20:00,24.0,22.0,29.71,SE,131,0.0,0.0,92,0.00,,SKC,0.00,VWS V14.01,2013-01-19 02:20:00,
2013-01-18 20:25:00,24.1,22.1,29.71,SE,130,0.0,0.0,92,0.00,,SKC,0.00,VWS V14.01,2013-01-19 02:25:00,
2013-01-18 20:30:00,24.0,22.0,29.71,SE,131,0.0,0.0,92,0.00,,SKC,0.00,VWS V14.01,2013-01-19 02:30:00,
2013-01-18 20:35:00,24.1,22.1,29.71,SE,131,0.0,0.0,92,0.00,,SKC,0.00,VWS V14.01,2013-01-19 02:35:00,
2013-01-18 20:40:00,24.0,22.0,29.71,SE,130,0.0,0.0,92,0.00,,SKC,0.00,VWS V14.01,2013-01-19 02:40:00,
2013-01-18 20:45:00,23.9,21.9,29.71,SE,131,0.0,0.0,92,0.00,,SKC,0.00,VWS V14.01,2013-01-19 02:45:00,
2013-01-18 20:50:00,23.8,21.8,29.71,SE,131,0.0,0.0,92,0.00,,SKC,0.00,VWS V14.01,2013-01-19 02:50:00,
2013-01-18 20:55:00,23.6,21.6,29.71,SE,131,0.0,2.0,92,0.00,,SKC,0.00,VWS V14.01,2013-01-19 02:55:00,
2013-01-18 21:00:00,23.5,21.5,29.71,SE,130,0.0,0.0,92,0.00,,SKC,0.00,VWS V14.01,2013-01-19 03:00:00,
2013-01-18 21:05:00,23.4,21.4,29.71,SE,130,0.0,0.0,92,0.00,,SKC,0.00,VWS V14.01,2013-01-19 03:05:00,
2013-01-18 21:10:00,23.2,21.2,29.71,SE,130,0.0,0.0,92,0.00,,SKC,0.00,VWS V14.01,2013-01-19 03:10:00,
2013-01-18 21:15:00,23.1,21.1,29.71,SE,131,0.0,0.0,92,0.00,,SKC,0.00,VWS V14.01,2013-01-19 03:15:00,
2013-01-18 21:20:00,22.9,20.9,29.71,SE,131,0.0,0.0,92,0.00,,SKC,0.00,VWS V14.01,2013-01-19 03:20:00,
2013-01-18 21:25:00,22.8,20.8,29.71,SE,130,0.0,0.0,92,0.00,,SKC,0.00,VWS V14.01,2013-01-19 03:25:00,
2013-01-18 21:30:00,22.7,20.7,29.71,SE,130,0.0,0.0,92,0.00,,SKC,0.00,VWS V14.01,2013-01-19 03:30:00,
2013-01-18 21:35:00,22.5,20.5,29.70,SE,130,0.0,0.0,92,0.00,,SKC,0.00,VWS V14.01,2013-01-19 03:35:00,
2013-01-18 21:40:00,22.3,20.3,29.70,SE,130,0.0,0.0,92,0.00,,SKC,0.00,VWS V14.01,2013-01-19 03:40:00,
2013-01-18 21:45:00,22.3,20.6,29.70,SE,130,0.0,0.0,93,0.00,,SKC,0.00,VWS V14.01,2013-01-19 03:45:00,
2013-01-18 21:50:00,22.4,20.7,29.71,SE,130,0.0,0.0,93,0.00,,SKC,0.00,VWS V14.01,2013-01-19 03:50:00,
2013-01-18 21:55:00,22.3,20.6,29.71,SE,130,0.0,0.0,93,0.00,,SKC,0.00,VWS V14.01,2013-01-19 03:55:00,
2013-01-18 22:00:00,21.0,19.3,29.70,SE,131,0.0,0.0,93,0.00,,SKC,0.00,VWS V14.01,2013-01-19 04:00:00,
2013-01-18 22:01:00,22.2,20.5,29.71,SE,130,0.0,0.0,93,0.00,,SKC,0.00,VWS V14.01,2013-01-19 04:01:00,
2013-01-18 22:06:00,22.0,20.3,29.71,SE,130,0.0,0.0,93,0.00,,SKC,0.00,VWS V14.01,2013-01-19 04:06:00,
2013-01-18 22:10:00,20.6,18.9,29.70,SE,130,0.0,0.0,93,0.00,,SKC,0.00,VWS V14.01,2013-01-19 04:10:00,
2013-01-18 22:11:00,21.7,20.0,29.71,SE,130,0.0,0.0,93,0.00,,SKC,0.00,VWS V14.01,2013-01-19 04:11:00,
2013-01-18 22:15:00,20.4,19.0,29.70,SE,130,0.0,0.0,94,0.00,,SKC,0.00,VWS V14.01,2013-01-19 04:15:00,
2013-01-18 22:16:00,21.4,19.7,29.71,SE,130,0.0,0.0,93,0.00,,SKC,0.00,VWS V14.01,2013-01-19 04:16:00,
2013-01-18 22:21:00,21.5,20.0,29.72,SE,130,0.0,0.0,94,0.00,,SKC,0.00,VWS V14.01,2013-01-19 04:21:00,
2013-01-18 22:26:00,21.7,20.2,29.72,SE,131,0.0,0.0,94,0.00,,SKC,0.00,VWS V14.01,2013-01-19 04:26:00,
2013-01-18 22:30:00,20.3,18.9,29.70,SE,130,0.0,0.0,94,0.00,,SKC,0.00,VWS V14.01,2013-01-19 04:30:00,
2013-01-18 22:31:00,21.9,20.4,29.70,SE,130,0.0,0.0,94,0.00,,SKC,0.00,VWS V14.01,2013-01-19 04:31:00,
2013-01-18 22:35:00,20.4,19.0,29.70,SE,131,0.0,0.0,94,0.00,,SKC,0.00,VWS V14.01,2013-01-19 04:35:00,
2013-01-18 22:36:00,21.9,20.4,29.70,SE,130,0.0,0.0,94,0.00,,SKC,0.00,VWS V14.01,2013-01-19 04:36:00,
2013-01-18 22:40:00,20.5,19.0,29.70,SE,130,0.0,0.0,94,0.00,,SKC,0.00,VWS V14.01,2013-01-19 04:40:00,
2013-01-18 22:41:00,21.9,20.4,29.70,SE,130,0.0,0.0,94,0.00,,SKC,0.00,VWS V14.01,2013-01-19 04:41:00,
2013-01-18 22:45:00,20.6,19.1,29.71,SE,130,0.0,0.0,94,0.00,,SKC,0.00,VWS V14.01,2013-01-19 04:45:00,
2013-01-18 22:46:00,21.5,19.8,29.70,SE,130,0.0,0.0,93,0.00,,SKC,0.00,VWS V14.01,2013-01-19 04:46:00,
2013-01-18 22:51:00,21.4,19.7,29.70,SE,131,0.0,0.0,93,0.00,,SKC,0.00,VWS V14.01,2013-01-19 04:51:00,
2013-01-18 22:55:00,20.8,19.4,29.71,SE,130,0.0,0.0,94,0.00,,SKC,0.00,VWS V14.01,2013-01-19 04:55:00,
2013-01-18 22:56:00,21.2,19.5,29.70,SE,130,0.0,0.0,93,0.00,,SKC,0.00,VWS V14.01,2013-01-19 04:56:00,
2013-01-18 23:00:00,20.8,19.4,29.70,SE,130,0.0,0.0,94,0.00,,SKC,0.00,VWS V14.01,2013-01-19 05:00:00,
2013-01-18 23:01:00,21.1,19.4,29.70,SE,130,0.0,0.0,93,0.00,,SKC,0.00,VWS V14.01,2013-01-19 05:01:00,
2013-01-18 23:02:00,21.0,19.3,29.70,SE,130,0.0,0.0,93,0.00,,SKC,0.00,VWS V14.01,2013-01-19 05:02:00,
2013-01-18 23:03:00,21.0,19.3,29.70,SE,130,0.0,0.0,93,0.00,,SKC,0.00,VWS V14.01,2013-01-19 05:03:00,
2013-01-18 23:05:00,20.9,19.5,29.70,SE,131,0.0,0.0,94,0.00,,SKC,0.00,VWS V14.01,2013-01-19 05:05:00,
2013-01-18 23:08:00,20.9,19.5,29.70,SE,131,0.0,0.0,94,0.00,,SKC,0.00,VWS V14.01,2013-01-19 05:08:00,
2013-01-18 23:10:00,21.2,19.8,29.70,WNW,286,2.0,3.0,94,0.00,,SKC,0.00,VWS V14.01,2013-01-19 05:10:00,
2013-01-18 23:13:00,20.5,18.8,29.70,SE,130,0.0,0.0,93,0.00,,SKC,0.00,VWS V14.01,2013-01-19 05:13:00,
2013-01-18 23:15:00,22.4,21.2,29.72,West,277,1.0,3.0,95,0.00,,SKC,0.00,VWS V14.01,2013-01-19 05:15:00,
2013-01-18 23:18:00,20.4,19.0,29.70,SE,130,0.0,0.0,94,0.00,,SKC,0.00,VWS V14.01,2013-01-19 05:18:00,
2013-01-18 23:20:00,23.3,22.1,29.72,WNW,283,1.0,3.0,95,0.00,,SKC,0.00,VWS V14.01,2013-01-19 05:20:00,
2013-01-18 23:23:00,20.3,18.9,29.70,SE,131,0.0,0.0,94,0.00,,SKC,0.00,VWS V14.01,2013-01-19 05:23:00,
2013-01-18 23:25:00,23.9,22.7,29.72,WNW,290,0.0,2.0,95,0.00,,SKC,0.00,VWS V14.01,2013-01-19 05:25:00,
2013-01-18 23:28:00,20.3,18.9,29.70,SE,130,0.0,0.0,94,0.00,,SKC,0.00,VWS V14.01,2013-01-19 05:28:00,
2013-01-18 23:33:00,20.3,18.9,29.70,SE,131,0.0,0.0,94,0.00,,SKC,0.00,VWS V14.01,2013-01-19 05:33:00,
2013-01-18 23:35:00,23.5,21.8,29.71,WNW,291,0.0,0.0,93,0.00,,SKC,0.00,VWS V14.01,2013-01-19 05:35:00,
2013-01-18 23:38:00,20.4,19.0,29.70,SE,130,0.0,0.0,94,0.00,,SKC,0.00,VWS V14.01,2013-01-19 05:38:00,
2013-01-18 23:40:00,23.8,22.1,29.71,WNW,291,0.0,0.0,93,0.00,,SKC,0.00,VWS V14.01,2013-01-19 05:40:00,
2013-01-18 23:43:00,20.5,19.0,29.70,SE,131,0.0,0.0,94,0.00,,SKC,0.00,VWS V14.01,2013-01-19 05:43:00,
2013-01-18 23:45:00,24.0,22.3,29.71,WNW,290,0.0,0.0,93,0.00,,SKC,0.00,VWS V14.01,2013-01-19 05:45:00,
2013-01-18 23:48:00,20.6,19.1,29.71,SE,130,0.0,0.0,94,0.00,,SKC,0.00,VWS V14.01,2013-01-19 05:48:00,
2013-01-18 23:50:00,23.9,22.2,29.71,WNW,291,0.0,0.0,93,0.00,,SKC,0.00,VWS V14.01,2013-01-19 05:50:00,
2013-01-18 23:53:00,20.7,19.2,29.71,SE,130,0.0,0.0,94,0.00,,SKC,0.00,VWS V14.01,2013-01-19 05:53:00,
2013-01-18 23:55:00,24.3,22.6,29.71,WNW,290,0.0,2.0,93,0.00,,SKC,0.00,VWS V14.01,2013-01-19 05:55:00,
2013-01-18 23:58:00,20.8,19.4,29.71,SE,130,0.0,0.0,94,0.00,,SKC,0.00,VWS V14.01,2013-01-19 05:58:00,